Time;durP1;ratioP1;P1;durP2;ratioP2;P2;SDS_P1;SDS_P2;PMS_P1;PMS_P2;Temp;Humidity;BMP_temperature;BMP_pressure;BME280_temperature;BME280_humidity;BME280_pressure;Samples;Min_cycle;Max_cycle;Signal;HPM_P1;HPM_P2
2022/09/17 00:01:15;;;;;;;11.02;2.83;;;12.40;64.50;;;;;;5033725;28;20037;-68
2022/09/17 00:03:41;;;;;;;9.57;2.38;;;12.40;64.60;;;;;;5049659;28;20041;-68
2022/09/17 00:06:09;;;;;;;11.18;2.63;;;12.40;64.80;;;;;;5050341;28;20083;-68
2022/09/17 00:08:37;;;;;;;9.85;2.25;;;12.40;64.90;;;;;;5050054;28;20040;-68
2022/09/17 00:11:30;;;;;;;10.98;2.00;;;12.40;65.10;;;;;;5051445;28;20049;-68
2022/09/17 00:13:59;;;;;;;12.60;2.70;;;12.40;65.20;;;;;;5049300;28;20060;-68
2022/09/17 00:16:32;;;;;;;12.35;2.03;;;12.40;65.30;;;;;;5050299;28;20121;-68
2022/09/17 00:18:59;;;;;;;16.75;3.47;;;12.40;65.40;;;;;;5050307;28;20029;-68
2022/09/17 00:21:25;;;;;;;13.38;2.85;;;12.40;65.60;;;;;;5050343;28;20094;-68
2022/09/17 00:23:56;;;;;;;15.52;2.90;;;12.40;65.80;;;;;;5050488;28;20033;-68
2022/09/17 00:26:22;;;;;;;12.45;2.70;;;12.40;66.00;;;;;;5065029;28;20029;-68
2022/09/17 00:28:52;;;;;;;13.70;2.20;;;12.40;66.20;;;;;;5050239;28;20388;-68
2022/09/17 00:31:19;;;;;;;10.90;2.83;;;12.50;66.40;;;;;;5050048;28;20033;-68
2022/09/17 00:33:46;;;;;;;11.18;2.10;;;12.40;66.40;;;;;;5050138;28;20045;-68
2022/09/17 00:36:11;;;;;;;9.68;2.28;;;12.40;66.40;;;;;;5050440;28;20102;-68
2022/09/17 00:38:37;;;;;;;15.00;2.58;;;12.40;66.40;;;;;;5036342;28;20489;-68
2022/09/17 00:41:03;;;;;;;9.02;2.47;;;12.50;66.40;;;;;;5055349;28;20040;-68
2022/09/17 00:43:40;;;;;;;7.82;1.70;;;12.40;66.70;;;;;;5054958;28;20115;-68
2022/09/17 00:46:16;;;;;;;14.93;3.67;;;12.50;66.40;;;;;;5055922;28;20052;-68
2022/09/17 00:48:44;;;;;;;10.82;2.08;;;12.50;66.30;;;;;;5053816;28;20045;-68
2022/09/17 00:51:13;;;;;;;12.90;2.35;;;12.50;66.20;;;;;;5052903;28;20033;-68
2022/09/17 00:53:38;;;;;;;11.15;2.38;;;12.50;66.20;;;;;;5053498;28;20112;-68
2022/09/17 00:56:13;;;;;;;10.18;1.92;;;12.50;66.20;;;;;;5053355;28;20072;-68
2022/09/17 00:58:39;;;;;;;13.73;2.40;;;12.50;66.10;;;;;;5053267;28;20049;-68
2022/09/17 01:01:05;;;;;;;10.25;1.92;;;12.50;66.00;;;;;;5053296;28;20048;-69
2022/09/17 01:03:32;;;;;;;13.27;2.35;;;12.50;65.90;;;;;;5052955;28;20111;-68
2022/09/17 01:06:17;;;;;;;9.63;1.83;;;12.40;65.80;;;;;;5053298;28;20485;-68
2022/09/17 01:09:03;;;;;;;10.70;2.38;;;12.50;65.90;;;;;;5052805;28;20049;-68
2022/09/17 01:11:48;;;;;;;9.38;2.03;;;12.50;65.80;;;;;;5053162;28;20047;-71
2022/09/17 01:14:22;;;;;;;10.88;1.98;;;12.50;65.80;;;;;;5053139;28;20032;-68
2022/09/17 01:16:50;;;;;;;9.43;1.90;;;12.50;65.70;;;;;;5052810;28;20146;-68
2022/09/17 01:19:46;;;;;;;14.73;3.00;;;12.40;65.60;;;;;;5053320;28;20029;-68
2022/09/17 01:22:29;;;;;;;8.07;1.90;;;12.40;65.40;;;;;;5055331;28;20096;-68
2022/09/17 01:25:10;;;;;;;9.35;2.40;;;12.40;65.60;;;;;;5052007;28;20041;-68
2022/09/17 01:28:11;;;;;;;13.88;2.53;;;12.30;65.50;;;;;;5053311;28;20068;-68
2022/09/17 01:31:08;;;;;;;14.05;2.30;;;12.30;65.40;;;;;;5052578;28;20504;-68
2022/09/17 01:34:11;;;;;;;7.95;1.98;;;12.30;65.50;;;;;;5067980;28;20044;-68
2022/09/17 01:36:47;;;;;;;13.90;2.33;;;12.30;65.60;;;;;;5051421;28;20408;-68
2022/09/17 01:39:28;;;;;;;13.95;2.30;;;12.30;65.70;;;;;;5053037;28;20049;-68
2022/09/17 01:42:01;;;;;;;10.07;1.88;;;12.30;65.70;;;;;;5052619;28;20087;-68
2022/09/17 01:44:42;;;;;;;9.98;1.80;;;12.30;65.70;;;;;;5041756;28;20034;-68
2022/09/17 01:47:26;;;;;;;10.27;3.00;;;12.30;65.80;;;;;;5053751;28;20042;-68
2022/09/17 01:49:56;;;;;;;9.38;1.83;;;12.30;65.80;;;;;;5049433;28;20033;-68
2022/09/17 01:52:24;;;;;;;7.20;1.52;;;12.30;65.80;;;;;;5052496;28;20045;-68
2022/09/17 01:54:55;;;;;;;9.05;1.95;;;12.30;65.80;;;;;;5051975;28;20103;-68
2022/09/17 01:57:40;;;;;;;7.40;1.88;;;12.30;65.80;;;;;;5052445;28;20048;-68
2022/09/17 02:00:16;;;;;;;8.23;1.77;;;12.30;65.70;;;;;;5051922;28;20044;-68
2022/09/17 02:02:47;;;;;;;10.68;2.15;;;12.30;65.60;;;;;;5054060;28;20037;-68
2022/09/17 02:05:19;;;;;;;9.45;1.73;;;12.30;65.60;;;;;;5052265;28;20072;-68
2022/09/17 02:07:51;;;;;;;11.10;2.20;;;12.30;65.50;;;;;;5053004;28;20124;-68
2022/09/17 02:10:20;;;;;;;9.57;1.88;;;12.30;65.40;;;;;;5052515;28;20123;-68
2022/09/17 02:12:54;;;;;;;9.13;1.85;;;12.30;65.40;;;;;;5057088;28;20056;-68
2022/09/17 02:15:25;;;;;;;13.07;2.30;;;12.30;65.20;;;;;;5035392;28;20049;-68
2022/09/17 02:18:07;;;;;;;6.80;1.30;;;12.30;65.20;;;;;;5067410;28;20408;-68
2022/09/17 02:20:53;;;;;;;5.70;1.42;;;12.30;65.10;;;;;;5052108;28;20384;-68
2022/09/17 02:23:33;;;;;;;10.32;2.03;;;12.30;65.10;;;;;;5051190;28;20042;-68
2022/09/17 02:26:09;;;;;;;7.82;2.15;;;12.20;65.10;;;;;;5051833;28;20120;-68
2022/09/17 02:28:48;;;;;;;10.15;1.58;;;12.20;65.10;;;;;;5052315;28;20037;-68
2022/09/17 02:31:14;;;;;;;11.80;1.63;;;12.20;65.10;;;;;;5034907;28;20049;-68
2022/09/17 02:33:43;;;;;;;8.07;1.55;;;12.20;65.20;;;;;;5052582;28;20036;-68
2022/09/17 02:36:09;;;;;;;10.00;1.70;;;12.20;65.70;;;;;;5052100;28;20077;-68
2022/09/17 02:38:38;;;;;;;7.88;1.60;;;12.20;65.40;;;;;;5052152;28;20508;-68
2022/09/17 02:41:16;;;;;;;10.10;1.80;;;12.10;65.40;;;;;;5051158;28;20041;-68
2022/09/17 02:43:42;;;;;;;7.03;1.60;;;12.10;65.40;;;;;;5051789;28;20037;-68
2022/09/17 02:46:45;;;;;;;5.22;1.10;;;12.10;65.40;;;;;;5050863;28;20036;-68
2022/09/17 02:49:23;;;;;;;10.90;1.75;;;12.10;65.60;;;;;;5034859;28;20047;-68
2022/09/17 02:52:04;;;;;;;9.82;1.60;;;12.10;65.80;;;;;;5034414;28;20041;-68
2022/09/17 02:54:48;;;;;;;12.63;1.52;;;12.10;65.90;;;;;;5067040;28;20045;-68
2022/09/17 02:57:25;;;;;;;7.70;1.35;;;12.20;65.90;;;;;;5051489;28;20041;-68
2022/09/17 03:00:13;;;;;;;6.00;1.15;;;12.10;65.90;;;;;;5034340;28;20044;-68
2022/09/17 03:02:42;;;;;;;7.75;1.63;;;12.10;65.90;;;;;;5050709;28;20048;-68
2022/09/17 03:05:09;;;;;;;7.65;1.73;;;12.10;65.90;;;;;;5051263;28;20040;-68
2022/09/17 03:07:35;;;;;;;6.95;1.30;;;12.10;65.80;;;;;;5034638;28;20206;-68
2022/09/17 03:10:01;;;;;;;8.20;2.00;;;12.10;65.80;;;;;;5034573;28;20048;-68
2022/09/17 03:12:27;;;;;;;7.20;1.30;;;12.10;65.70;;;;;;5051936;28;20386;-68
2022/09/17 03:14:52;;;;;;;7.60;1.55;;;12.10;65.70;;;;;;5051213;28;20562;-68
2022/09/17 03:17:18;;;;;;;8.05;1.95;;;12.10;65.80;;;;;;5034289;28;20049;-68
2022/09/17 03:19:44;;;;;;;8.70;1.63;;;12.10;65.80;;;;;;5051011;28;20036;-68
2022/09/17 03:22:11;;;;;;;9.73;1.65;;;12.10;65.70;;;;;;5050474;28;20404;-68
2022/09/17 03:24:37;;;;;;;8.40;1.65;;;12.20;65.80;;;;;;5048567;28;20033;-68
2022/09/17 03:27:02;;;;;;;9.45;1.77;;;12.10;65.90;;;;;;5034044;28;20647;-68
2022/09/17 03:29:28;;;;;;;7.10;1.25;;;12.10;66.00;;;;;;5050955;28;20096;-68
2022/09/17 03:31:54;;;;;;;6.22;1.58;;;12.10;66.20;;;;;;5051396;28;20045;-68
2022/09/17 03:34:20;;;;;;;5.65;1.27;;;12.10;66.20;;;;;;5034686;28;20119;-68
2022/09/17 03:36:45;;;;;;;9.00;1.15;;;12.10;66.20;;;;;;5055905;28;20378;-68
2022/09/17 03:39:12;;;;;;;9.48;2.03;;;12.10;66.10;;;;;;5050840;28;20043;-68
2022/09/17 03:41:38;;;;;;;8.10;1.65;;;12.10;66.00;;;;;;5050109;28;20037;-68
2022/09/17 03:44:04;;;;;;;12.98;1.73;;;12.10;65.90;;;;;;5051045;28;20052;-68
2022/09/17 03:46:30;;;;;;;9.98;1.73;;;12.00;65.80;;;;;;5050403;28;20052;-68
2022/09/17 03:48:55;;;;;;;11.40;1.70;;;12.00;65.80;;;;;;5050959;28;20036;-68
2022/09/17 03:51:21;;;;;;;8.25;1.40;;;12.00;65.80;;;;;;5050464;28;20503;-68
2022/09/17 03:53:47;;;;;;;7.20;1.27;;;12.00;65.80;;;;;;5051438;28;20037;-68
2022/09/17 03:56:13;;;;;;;11.18;1.85;;;12.00;65.90;;;;;;5050567;28;20033;-68
2022/09/17 03:58:39;;;;;;;11.77;1.92;;;12.00;65.90;;;;;;5050250;28;20408;-68
2022/09/17 04:01:05;;;;;;;11.82;1.70;;;12.00;65.80;;;;;;5050134;28;20041;-68
2022/09/17 04:03:31;;;;;;;14.35;2.53;;;12.00;65.70;;;;;;5050531;28;20033;-68
2022/09/17 04:05:57;;;;;;;6.85;1.55;;;11.90;65.60;;;;;;5050484;28;20029;-68
2022/09/17 04:08:23;;;;;;;5.90;1.67;;;12.00;65.60;;;;;;5050630;28;20048;-68
2022/09/17 04:10:50;;;;;;;9.27;1.60;;;11.90;65.50;;;;;;5050548;28;20047;-68
2022/09/17 04:13:17;;;;;;;11.63;2.45;;;11.90;65.50;;;;;;5051873;28;20558;-68
2022/09/17 04:15:44;;;;;;;8.55;1.50;;;11.90;65.40;;;;;;5054277;28;20131;-68
2022/09/17 04:18:10;;;;;;;8.25;1.35;;;11.90;65.40;;;;;;5053692;28;20064;-68
2022/09/17 04:20:36;;;;;;;7.82;1.40;;;11.90;65.30;;;;;;5054058;28;20036;-68
2022/09/17 04:23:03;;;;;;;9.63;2.13;;;11.90;65.20;;;;;;5053975;28;20094;-68
2022/09/17 04:25:29;;;;;;;6.28;1.30;;;11.90;65.10;;;;;;5055061;28;20120;-68
2022/09/17 04:27:54;;;;;;;9.68;1.70;;;11.90;64.90;;;;;;5039836;28;20128;-68
2022/09/17 04:30:20;;;;;;;6.82;1.58;;;11.90;64.90;;;;;;5054103;28;20041;-68
2022/09/17 04:32:45;;;;;;;8.40;1.15;;;11.90;64.90;;;;;;5051156;28;20041;-68
2022/09/17 04:35:12;;;;;;;7.43;1.80;;;11.90;64.90;;;;;;5054314;28;20040;-68
2022/09/17 04:37:38;;;;;;;8.85;1.80;;;11.90;64.70;;;;;;5037166;28;20048;-68
2022/09/17 04:40:05;;;;;;;10.15;1.65;;;11.90;64.60;;;;;;5039880;28;20043;-68
2022/09/17 04:42:30;;;;;;;11.02;2.35;;;11.90;64.30;;;;;;5036799;28;20037;-68
2022/09/17 04:44:56;;;;;;;8.63;1.77;;;11.80;64.30;;;;;;5055343;28;20040;-68
2022/09/17 04:47:23;;;;;;;7.63;1.50;;;11.80;64.60;;;;;;5054900;28;20052;-69
2022/09/17 04:49:48;;;;;;;9.18;1.88;;;11.80;64.90;;;;;;5036882;28;20041;-69
2022/09/17 04:52:14;;;;;;;9.25;1.60;;;11.80;65.10;;;;;;5053247;28;20055;-69
2022/09/17 04:54:40;;;;;;;9.88;1.55;;;11.80;65.40;;;;;;5055348;28;20055;-69
2022/09/17 04:57:05;;;;;;;11.48;2.00;;;11.80;65.60;;;;;;5053518;28;20102;-69
2022/09/17 04:59:31;;;;;;;11.50;1.80;;;11.80;65.80;;;;;;5053849;28;20041;-69
2022/09/17 05:01:57;;;;;;;7.10;1.40;;;11.80;65.90;;;;;;5053152;28;20116;-69
2022/09/17 05:04:22;;;;;;;9.02;1.85;;;11.80;65.80;;;;;;5037214;28;20033;-68
2022/09/17 05:06:48;;;;;;;11.82;2.00;;;11.80;65.70;;;;;;5053099;28;20496;-68
2022/09/17 05:09:14;;;;;;;7.35;1.40;;;11.70;65.50;;;;;;5038184;28;20106;-68
2022/09/17 05:11:40;;;;;;;10.13;1.73;;;11.80;65.50;;;;;;5036803;28;20095;-68
2022/09/17 05:14:06;;;;;;;5.57;1.08;;;11.70;65.40;;;;;;5053350;28;20044;-68
2022/09/17 05:16:31;;;;;;;6.95;1.30;;;11.80;65.40;;;;;;5053538;28;20425;-68
2022/09/17 05:18:57;;;;;;;6.90;1.45;;;11.80;65.30;;;;;;5053321;28;20055;-68
2022/09/17 05:21:23;;;;;;;14.45;1.83;;;11.80;65.20;;;;;;5053719;28;20495;-68
2022/09/17 05:23:49;;;;;;;9.57;1.35;;;11.80;65.20;;;;;;5054517;28;20029;-68
2022/09/17 05:26:14;;;;;;;9.85;2.25;;;11.80;65.40;;;;;;5055076;28;20033;-68
2022/09/17 05:28:41;;;;;;;7.82;1.50;;;11.80;64.80;;;;;;5052982;28;20076;-68
2022/09/17 05:31:07;;;;;;;11.48;2.03;;;11.70;64.70;;;;;;5053283;28;20555;-68
2022/09/17 05:33:33;;;;;;;6.10;1.45;;;11.80;64.80;;;;;;5052668;28;20116;-68
2022/09/17 05:35:59;;;;;;;8.40;1.55;;;11.70;64.70;;;;;;5052923;28;20065;-68
2022/09/17 05:38:25;;;;;;;5.75;1.42;;;11.70;64.60;;;;;;5052659;28;20068;-68
2022/09/17 05:40:50;;;;;;;6.68;1.55;;;11.70;64.50;;;;;;5052519;28;20041;-68
2022/09/17 05:43:16;;;;;;;6.32;1.10;;;11.70;64.50;;;;;;5050435;28;20036;-68
2022/09/17 05:45:43;;;;;;;6.53;1.23;;;11.70;64.60;;;;;;5052690;28;20064;-68
2022/09/17 05:48:13;;;;;;;7.63;1.30;;;11.70;64.80;;;;;;5052803;28;20063;-68
2022/09/17 05:50:40;;;;;;;8.32;1.50;;;11.70;64.80;;;;;;5051899;28;20033;-68
2022/09/17 05:53:14;;;;;;;9.00;1.75;;;11.70;64.70;;;;;;5052533;28;20083;-68
2022/09/17 05:55:40;;;;;;;7.05;1.60;;;11.70;64.70;;;;;;5053586;28;20052;-68
2022/09/17 05:58:11;;;;;;;9.95;1.60;;;11.70;65.30;;;;;;5049651;28;20033;-68
2022/09/17 06:00:37;;;;;;;12.02;2.35;;;11.70;65.50;;;;;;5052456;28;20053;-68
2022/09/17 06:03:03;;;;;;;8.48;1.48;;;11.70;65.10;;;;;;5053943;28;20447;-68
2022/09/17 06:05:28;;;;;;;8.50;1.70;;;11.70;65.10;;;;;;5052573;28;20082;-68
2022/09/17 06:07:54;;;;;;;9.07;1.40;;;11.70;65.20;;;;;;5052092;28;20396;-68
2022/09/17 06:10:20;;;;;;;10.02;2.80;;;11.70;65.20;;;;;;5055748;28;20033;-68
2022/09/17 06:12:46;;;;;;;6.32;1.42;;;11.80;65.20;;;;;;5051911;28;20388;-68
2022/09/17 06:15:13;;;;;;;6.38;1.45;;;11.80;65.30;;;;;;5052324;28;20044;-68
2022/09/17 06:17:40;;;;;;;8.95;1.55;;;11.90;65.40;;;;;;5051900;28;20056;-68
2022/09/17 06:20:06;;;;;;;9.07;1.55;;;11.90;65.90;;;;;;5035376;28;20040;-68
2022/09/17 06:22:32;;;;;;;9.13;1.58;;;12.00;65.60;;;;;;5052704;28;20510;-68
2022/09/17 06:24:59;;;;;;;8.82;1.63;;;12.00;65.70;;;;;;5051803;28;20064;-68
2022/09/17 06:27:35;;;;;;;8.20;2.08;;;12.00;65.70;;;;;;5051956;28;20071;-68
2022/09/17 06:30:00;;;;;;;9.65;1.65;;;12.10;65.50;;;;;;5053969;28;20044;-68
2022/09/17 06:32:27;;;;;;;7.82;1.40;;;12.10;65.20;;;;;;5034913;28;20393;-68
2022/09/17 06:34:54;;;;;;;9.02;1.95;;;12.10;65.10;;;;;;5049839;28;20045;-68
2022/09/17 06:37:25;;;;;;;7.80;1.95;;;12.10;64.90;;;;;;5051669;28;20041;-68
2022/09/17 06:39:51;;;;;;;8.50;1.90;;;12.10;64.80;;;;;;5051692;28;20049;-68
2022/09/17 06:42:17;;;;;;;8.40;1.35;;;12.10;64.80;;;;;;5052644;28;20025;-68
2022/09/17 06:44:42;;;;;;;7.40;1.67;;;12.10;64.80;;;;;;5051661;28;20053;-68
2022/09/17 06:47:08;;;;;;;9.30;2.33;;;12.20;65.00;;;;;;5034757;28;20037;-68
2022/09/17 06:49:34;;;;;;;7.03;1.35;;;12.20;65.30;;;;;;5050883;28;20704;-68
2022/09/17 06:52:00;;;;;;;7.72;1.60;;;12.20;65.60;;;;;;5051656;28;20033;-68
2022/09/17 06:54:26;;;;;;;8.98;1.38;;;12.30;66.00;;;;;;5035233;28;20133;-68
2022/09/17 06:56:51;;;;;;;8.32;1.63;;;12.30;66.00;;;;;;5034378;28;20119;-68
2022/09/17 06:59:17;;;;;;;8.52;1.58;;;12.30;65.70;;;;;;5051023;28;20079;-68
2022/09/17 07:01:43;;;;;;;5.93;1.60;;;12.30;65.60;;;;;;5050782;28;20045;-68
2022/09/17 07:04:09;;;;;;;7.43;1.35;;;12.30;65.50;;;;;;5034189;28;20112;-69
2022/09/17 07:06:34;;;;;;;7.78;1.10;;;12.30;65.20;;;;;;5050665;28;20037;-68
2022/09/17 07:09:00;;;;;;;10.00;1.27;;;12.30;65.00;;;;;;5050944;28;20037;-68
2022/09/17 07:11:26;;;;;;;6.97;1.27;;;12.30;65.10;;;;;;5051093;28;20147;-68
2022/09/17 07:13:51;;;;;;;6.30;1.30;;;12.30;65.40;;;;;;5051237;28;20568;-68
2022/09/17 07:16:18;;;;;;;7.75;1.27;;;12.40;65.80;;;;;;5051405;28;20131;-68
2022/09/17 07:18:44;;;;;;;6.20;1.00;;;12.40;66.20;;;;;;5064616;28;20037;-68
2022/09/17 07:21:10;;;;;;;4.07;0.90;;;12.40;66.50;;;;;;5033262;28;20360;-68
2022/09/17 07:23:36;;;;;;;6.82;1.00;;;12.40;66.60;;;;;;5050996;28;20099;-69
2022/09/17 07:26:11;;;;;;;6.20;1.15;;;12.50;66.90;;;;;;5051571;28;20505;-68
2022/09/17 07:28:37;;;;;;;;;;;12.50;67.30;;;;;;5051318;28;20037;-68
2022/09/17 07:31:04;;;;;;;6.70;1.60;;;12.50;67.00;;;;;;5050784;28;20679;-68
2022/09/17 07:33:30;;;;;;;8.73;1.27;;;12.60;67.30;;;;;;5050749;28;20120;-68
2022/09/17 07:36:01;;;;;;;10.32;1.40;;;12.70;67.40;;;;;;5064253;28;20043;-68
2022/09/17 07:38:29;;;;;;;4.25;0.90;;;12.70;67.30;;;;;;5050897;28;20037;-68
2022/09/17 07:41:03;;;;;;;5.38;0.98;;;12.70;66.90;;;;;;5050509;28;20489;-68
2022/09/17 07:43:32;;;;;;;6.22;1.50;;;12.80;66.70;;;;;;5050770;28;20036;-69
2022/09/17 07:45:59;;;;;;;5.38;1.20;;;12.80;66.80;;;;;;5033617;28;20492;-68
2022/09/17 07:48:25;;;;;;;5.35;1.00;;;12.90;66.90;;;;;;5049889;28;20045;-67
2022/09/17 07:50:51;;;;;;;4.75;0.93;;;12.90;66.70;;;;;;5049980;28;20052;-68
2022/09/17 07:53:17;;;;;;;7.13;0.93;;;13.00;66.20;;;;;;5050439;28;20029;-68
2022/09/17 07:55:54;;;;;;;4.97;0.73;;;13.00;66.00;;;;;;5032617;28;20131;-68
2022/09/17 07:58:22;;;;;;;4.13;1.00;;;13.10;66.00;;;;;;5054155;28;20033;-68
2022/09/17 08:00:48;;;;;;;5.00;0.70;;;13.10;66.00;;;;;;5053075;28;20091;-68
2022/09/17 08:03:14;;;;;;;4.15;1.05;;;13.20;65.80;;;;;;5050227;28;20045;-69
2022/09/17 08:05:39;;;;;;;6.30;0.90;;;13.20;64.90;;;;;;5051293;28;20068;-68
2022/09/17 08:08:05;;;;;;;2.88;1.10;;;13.30;64.80;;;;;;5051520;28;20052;-68
2022/09/17 08:10:31;;;;;;;3.03;0.50;;;13.30;65.00;;;;;;5052277;28;20044;-68
2022/09/17 08:12:57;;;;;;;3.53;0.50;;;13.50;65.00;;;;;;5051379;28;20045;-68
2022/09/17 08:15:24;;;;;;;3.90;0.52;;;13.60;64.60;;;;;;5051431;28;20095;-68
2022/09/17 08:17:50;;;;;;;3.80;0.77;;;13.70;64.00;;;;;;5026597;28;20717;-68
2022/09/17 08:20:17;;;;;;;6.03;0.93;;;13.80;63.50;;;;;;5037313;28;20044;-68
2022/09/17 08:22:43;;;;;;;6.45;0.93;;;13.90;63.30;;;;;;5051184;28;20400;-67
2022/09/17 08:25:09;;;;;;;4.53;0.77;;;14.00;62.80;;;;;;5050600;28;20120;-67
2022/09/17 08:27:37;;;;;;;5.07;0.85;;;14.10;62.50;;;;;;5050995;28;20128;-67
2022/09/17 08:30:05;;;;;;;4.13;1.08;;;14.10;62.50;;;;;;5049771;28;20378;-67
2022/09/17 08:32:30;;;;;;;7.53;1.35;;;14.20;62.70;;;;;;5049630;28;20075;-67
2022/09/17 08:34:56;;;;;;;6.28;0.80;;;14.20;62.50;;;;;;5048611;28;21541;-67
2022/09/17 08:37:22;;;;;;;4.57;0.88;;;14.20;62.70;;;;;;5049891;28;20041;-67
2022/09/17 08:39:48;;;;;;;1.88;0.50;;;14.30;63.30;;;;;;5049846;28;20041;-67
2022/09/17 08:42:23;;;;;;;4.90;0.95;;;14.40;63.20;;;;;;5034597;28;20052;-67
2022/09/17 08:44:49;;;;;;;4.68;0.90;;;14.50;62.90;;;;;;5033381;28;20029;-68
2022/09/17 08:47:29;;;;;;;5.00;1.05;;;14.60;63.00;;;;;;5049505;28;20037;-67
2022/09/17 08:50:02;;;;;;;3.88;0.57;;;14.60;62.50;;;;;;5047406;28;20075;-67
2022/09/17 08:52:56;;;;;;;5.30;0.60;;;14.60;62.80;;;;;;5050013;28;20427;-69
2022/09/17 08:55:40;;;;;;;3.58;0.90;;;14.70;63.60;;;;;;5050228;28;20051;-67
2022/09/17 08:58:34;;;;;;;5.28;1.50;;;14.80;63.20;;;;;;5049813;28;20102;-68
2022/09/17 09:01:38;;;;;;;4.50;0.95;;;14.90;62.20;;;;;;5055392;28;20050;-67
2022/09/17 09:04:54;;;;;;;5.70;1.02;;;14.90;61.60;;;;;;5053359;28;20044;-67
2022/09/17 09:07:24;;;;;;;;;;;14.80;61.40;;;;;;5072577;28;20041;-67
2022/09/17 09:10:03;;;;;;;6.05;0.80;;;14.80;61.20;;;;;;5055545;28;19916;-67
2022/09/17 09:12:34;;;;;;;3.10;0.75;;;14.90;62.20;;;;;;5053730;28;20439;-67
2022/09/17 09:15:05;;;;;;;4.03;0.70;;;14.90;61.80;;;;;;5052896;28;20048;-67
2022/09/17 09:17:39;;;;;;;6.90;0.88;;;14.90;61.50;;;;;;5050912;28;20158;-67
2022/09/17 09:20:11;;;;;;;3.75;1.00;;;14.90;61.50;;;;;;5052648;28;20103;-67
2022/09/17 09:22:50;;;;;;;7.43;1.58;;;14.90;62.00;;;;;;5063916;28;20510;-67
2022/09/17 09:25:19;;;;;;;4.80;1.05;;;14.90;62.80;;;;;;5064110;28;20151;-67
2022/09/17 09:27:55;;;;;;;4.95;1.10;;;14.90;63.60;;;;;;5052739;28;20472;-67
2022/09/17 09:30:23;;;;;;;5.10;1.02;;;14.90;64.30;;;;;;5050924;28;20095;-67
2022/09/17 09:32:55;;;;;;;9.25;1.35;;;15.00;64.30;;;;;;5052642;28;20443;-67
2022/09/17 09:35:42;;;;;;;7.20;0.98;;;15.20;64.50;;;;;;5058134;28;20052;-68
2022/09/17 09:38:08;;;;;;;8.38;2.05;;;15.30;64.00;;;;;;5052645;28;20091;-67
2022/09/17 09:40:43;;;;;;;7.93;1.10;;;15.40;63.50;;;;;;5052528;28;20427;-67
2022/09/17 09:43:47;;;;;;;6.95;1.10;;;15.50;63.10;;;;;;5053201;28;20041;-67
2022/09/17 09:46:30;;;;;;;5.90;1.13;;;15.50;63.10;;;;;;5051907;28;20045;-67
2022/09/17 09:49:47;;;;;;;7.55;1.30;;;15.50;62.90;;;;;;5050735;28;20476;-67
2022/09/17 09:52:39;;;;;;;5.78;0.95;;;15.50;62.80;;;;;;5056557;28;20051;-67
2022/09/17 09:55:28;;;;;;;8.52;1.60;;;15.50;62.80;;;;;;5063475;28;20045;-67
2022/09/17 09:58:23;;;;;;;7.07;1.30;;;15.60;63.80;;;;;;5044917;28;20056;-69
2022/09/17 10:00:50;;;;;;;5.25;1.38;;;15.60;63.60;;;;;;5052248;28;20393;-69
2022/09/17 10:03:31;;;;;;;9.48;1.73;;;15.60;63.60;;;;;;5053577;28;20060;-69
2022/09/17 10:06:09;;;;;;;7.20;1.42;;;15.70;63.30;;;;;;5054466;28;20041;-69
2022/09/17 10:09:00;;;;;;;8.23;1.15;;;15.60;63.10;;;;;;5037280;28;20052;-69
2022/09/17 10:11:27;;;;;;;7.70;1.60;;;15.60;63.10;;;;;;5038779;28;20072;-69
2022/09/17 10:14:23;;;;;;;7.50;1.50;;;15.60;63.20;;;;;;5052501;28;20048;-69
2022/09/17 10:16:49;;;;;;;5.50;1.45;;;15.50;63.00;;;;;;5035931;28;20044;-70
2022/09/17 10:19:24;;;;;;;7.43;1.17;;;15.50;62.90;;;;;;5052659;28;20033;-70
2022/09/17 10:21:51;;;;;;;3.67;1.15;;;15.50;63.00;;;;;;5035200;28;20051;-69
2022/09/17 10:24:32;;;;;;;4.78;1.35;;;15.40;63.10;;;;;;5054517;28;20040;-69
2022/09/17 10:27:11;;;;;;;5.45;1.00;;;15.40;63.10;;;;;;5052557;28;20043;-69
2022/09/17 10:29:43;;;;;;;4.38;0.68;;;15.20;61.30;;;;;;5032753;28;20045;-70
2022/09/17 10:32:15;;;;;;;3.72;0.70;;;15.10;60.80;;;;;;5032816;28;20046;-69
2022/09/17 10:34:55;;;;;;;5.88;0.90;;;14.90;61.20;;;;;;5045171;28;20182;-69
2022/09/17 10:37:45;;;;;;;4.22;0.90;;;14.80;61.10;;;;;;5045804;28;20120;-69
2022/09/17 10:40:24;;;;;;;5.10;1.27;;;14.60;61.40;;;;;;5070746;28;20040;-70
2022/09/17 10:43:10;;;;;;;5.13;0.73;;;14.50;62.70;;;;;;5058273;28;20507;-69
2022/09/17 10:45:38;;;;;;;6.00;1.25;;;14.40;64.10;;;;;;5052025;28;20044;-69
2022/09/17 10:48:04;;;;;;;5.53;1.00;;;14.40;64.90;;;;;;5052518;28;20044;-70
2022/09/17 10:50:33;;;;;;;5.18;1.10;;;14.40;65.50;;;;;;5052171;28;20408;-70
2022/09/17 10:53:14;;;;;;;5.07;1.02;;;14.40;65.80;;;;;;5035780;28;20044;-69
2022/09/17 10:55:57;;;;;;;8.05;1.35;;;14.50;66.20;;;;;;5052314;28;20523;-69
2022/09/17 10:58:44;;;;;;;4.22;1.00;;;14.50;66.80;;;;;;5035459;28;20503;-70
2022/09/17 11:01:21;;;;;;;3.40;0.82;;;14.60;67.10;;;;;;5032386;28;20041;-70
2022/09/17 11:03:53;;;;;;;6.22;0.90;;;14.60;66.60;;;;;;5032235;28;20048;-70
2022/09/17 11:06:40;;;;;;;6.20;1.00;;;14.60;65.60;;;;;;5044171;28;20037;-69
2022/09/17 11:09:33;;;;;;;4.40;0.90;;;14.60;64.90;;;;;;5051735;28;20064;-69
2022/09/17 11:12:33;;;;;;;3.42;0.75;;;14.60;65.80;;;;;;5050010;28;20043;-69
2022/09/17 11:15:01;;;;;;;4.00;0.80;;;14.60;65.10;;;;;;5046132;28;20052;-70
2022/09/17 11:17:55;;;;;;;3.55;0.60;;;14.60;65.30;;;;;;5051096;28;20045;-70
2022/09/17 11:20:29;;;;;;;5.10;0.82;;;14.60;64.20;;;;;;5050500;28;20055;-70
2022/09/17 11:22:59;;;;;;;7.07;1.30;;;14.70;64.30;;;;;;5049975;28;20037;-70
2022/09/17 11:25:55;;;;;;;7.30;1.13;;;14.70;63.50;;;;;;5051104;28;20044;-69
2022/09/17 11:28:41;;;;;;;3.08;0.45;;;14.70;62.20;;;;;;5035185;28;20049;-69
2022/09/17 11:31:21;;;;;;;3.80;0.70;;;14.70;62.10;;;;;;5058108;28;20162;-69
2022/09/17 11:34:08;;;;;;;3.40;0.50;;;14.70;60.90;;;;;;5051347;28;20576;-68
2022/09/17 11:36:59;;;;;;;4.68;1.30;;;14.70;61.00;;;;;;5051684;28;20037;-68
2022/09/17 11:39:46;;;;;;;5.65;0.65;;;14.70;61.80;;;;;;5051370;28;20041;-69
2022/09/17 11:42:18;;;;;;;4.70;1.08;;;14.70;62.80;;;;;;5015324;28;20048;-69
2022/09/17 11:44:54;;;;;;;4.05;0.88;;;14.80;62.80;;;;;;5045748;28;20072;-69
2022/09/17 11:47:33;;;;;;;4.85;0.88;;;14.90;62.70;;;;;;5051072;28;20072;-69
2022/09/17 11:50:19;;;;;;;4.35;1.10;;;14.90;62.70;;;;;;5047814;28;20044;-69
2022/09/17 11:53:02;;;;;;;5.85;1.27;;;15.00;62.80;;;;;;5059741;28;20044;-69
2022/09/17 11:55:38;;;;;;;4.53;1.58;;;15.10;62.50;;;;;;5031490;28;20044;-69
2022/09/17 11:58:26;;;;;;;7.00;1.38;;;15.10;61.60;;;;;;5047425;28;20045;-69
2022/09/17 12:01:05;;;;;;;6.30;1.30;;;15.20;59.60;;;;;;5034860;28;20083;-69
2022/09/17 12:03:59;;;;;;;6.95;1.05;;;15.20;60.40;;;;;;5050943;28;20048;-69
2022/09/17 12:06:41;;;;;;;6.65;1.40;;;15.20;61.30;;;;;;5062132;28;20046;-69
2022/09/17 12:09:15;;;;;;;8.35;1.50;;;15.20;62.70;;;;;;5031441;28;20045;-69
2022/09/17 12:12:15;;;;;;;5.10;1.20;;;15.20;61.80;;;;;;5031416;28;20052;-69
2022/09/17 12:14:52;;;;;;;5.80;1.30;;;15.30;61.20;;;;;;5043489;28;20060;-69
2022/09/17 12:17:30;;;;;;;6.32;1.27;;;15.40;61.40;;;;;;5048026;28;20073;-69
2022/09/17 12:20:08;;;;;;;8.02;1.67;;;15.40;59.70;;;;;;5051295;28;20051;-69
2022/09/17 12:22:39;;;;;;;8.85;1.67;;;15.40;58.80;;;;;;5050477;28;20044;-69
2022/09/17 12:25:10;;;;;;;7.63;1.48;;;15.50;58.70;;;;;;5050793;28;20036;-69
2022/09/17 12:27:40;;;;;;;6.15;1.20;;;15.50;58.60;;;;;;5050948;28;20040;-69
2022/09/17 12:30:20;;;;;;;5.75;1.30;;;15.50;58.80;;;;;;5050793;28;20091;-69
2022/09/17 12:33:05;;;;;;;7.95;2.10;;;15.60;58.90;;;;;;5033304;28;20105;-69
2022/09/17 12:35:40;;;;;;;12.65;2.00;;;15.60;59.10;;;;;;5052541;28;20048;-70
2022/09/17 12:38:08;;;;;;;10.27;1.95;;;15.60;59.20;;;;;;5054552;28;20126;-71
2022/09/17 12:40:39;;;;;;;8.10;1.40;;;15.70;59.10;;;;;;5054852;28;20456;-70
2022/09/17 12:43:27;;;;;;;7.63;1.83;;;15.70;58.80;;;;;;5053793;28;20041;-70
2022/09/17 12:46:08;;;;;;;8.30;1.65;;;15.80;58.30;;;;;;5054511;28;20500;-69
2022/09/17 12:48:57;;;;;;;10.20;1.98;;;15.80;58.10;;;;;;5071314;28;20037;-69
2022/09/17 12:51:26;;;;;;;11.05;2.40;;;15.80;57.50;;;;;;5052069;28;20513;-70
2022/09/17 12:54:07;;;;;;;11.52;1.67;;;15.80;57.10;;;;;;5054282;28;20511;-70
2022/09/17 12:56:54;;;;;;;12.45;2.25;;;15.70;55.20;;;;;;5053860;28;20072;-70
2022/09/17 12:59:27;;;;;;;10.70;2.22;;;15.70;54.00;;;;;;5054729;28;20396;-70
2022/09/17 13:02:00;;;;;;;12.07;2.28;;;15.80;54.20;;;;;;5054513;28;20041;-69
2022/09/17 13:04:45;;;;;;;8.90;1.55;;;15.70;54.20;;;;;;5053237;28;20044;-70
2022/09/17 13:07:26;;;;;;;13.65;2.63;;;15.70;53.70;;;;;;5046305;28;20045;-70
2022/09/17 13:09:59;;;;;;;9.88;1.95;;;15.80;54.00;;;;;;5046459;28;20052;-69
2022/09/17 13:13:03;;;;;;;9.63;1.80;;;15.80;54.40;;;;;;5053951;28;20037;-69
2022/09/17 13:15:32;;;;;;;7.27;1.60;;;15.80;54.40;;;;;;5053364;28;20515;-69